Time;durP1;ratioP1;P1;durP2;ratioP2;P2;SDS_P1;SDS_P2;PMS_P1;PMS_P2;Temp;Humidity;BMP_temperature;BMP_pressure;BME280_temperature;BME280_humidity;BME280_pressure;Samples;Min_cycle;Max_cycle;Signal;HPM_P1;HPM_P2
2023/05/08 15:27:10;;;;;;;25.33;18.65;;;25.90;96.30;;;;;;5125443;27;20344;-64
2023/05/08 15:29:38;;;;;;;27.00;19.95;;;26.10;96.50;;;;;;5129264;28;20062;-66
2023/05/08 15:32:05;;;;;;;25.02;18.30;;;26.40;95.20;;;;;;5127917;28;20102;-65
2023/05/08 15:34:30;;;;;;;29.83;22.90;;;26.70;93.20;;;;;;5117842;28;20027;-67
2023/05/08 15:36:56;;;;;;;21.40;16.92;;;27.10;92.60;;;;;;5108851;28;20081;-63
2023/05/08 15:39:21;;;;;;;18.25;14.98;;;27.40;90.40;;;;;;5108749;28;20016;-64
2023/05/08 15:41:47;;;;;;;25.48;19.00;;;27.50;88.70;;;;;;5126821;28;20127;-65
2023/05/08 15:44:13;;;;;;;27.17;21.75;;;27.40;86.90;;;;;;5114881;28;20024;-67
2023/05/08 15:46:38;;;;;;;24.00;17.70;;;27.30;85.90;;;;;;5108584;28;20032;-65
2023/05/08 15:49:04;;;;;;;24.75;19.50;;;27.10;83.80;;;;;;5127450;28;20046;-65
2023/05/08 15:51:30;;;;;;;23.30;18.17;;;26.70;84.50;;;;;;5113279;28;20438;-65
2023/05/08 15:53:56;;;;;;;24.10;19.92;;;26.40;85.90;;;;;;5087570;28;20077;-68
2023/05/08 15:56:23;;;;;;;26.05;20.23;;;26.10;87.10;;;;;;5088376;28;20024;-65
2023/05/08 15:58:52;;;;;;;29.55;21.10;;;25.80;88.50;;;;;;5087644;28;20418;-66
2023/05/08 16:01:18;;;;;;;29.13;21.45;;;25.50;89.90;;;;;;5088618;28;20085;-65
2023/05/08 16:03:44;;;;;;;29.88;21.90;;;25.10;90.90;;;;;;5100663;28;20024;-65
2023/05/08 16:06:10;;;;;;;27.08;20.02;;;24.90;91.70;;;;;;5108939;28;20035;-65
2023/05/08 16:08:35;;;;;;;30.23;22.45;;;24.60;92.40;;;;;;5127641;28;20141;-66
2023/05/08 16:11:01;;;;;;;31.50;23.75;;;24.30;92.80;;;;;;5128575;28;20023;-65
2023/05/08 16:13:27;;;;;;;30.95;21.90;;;24.10;93.10;;;;;;5128061;28;20027;-64
2023/05/08 16:15:53;;;;;;;31.85;23.27;;;23.90;93.80;;;;;;5113713;28;20439;-65
2023/05/08 16:18:19;;;;;;;31.85;21.42;;;23.70;94.50;;;;;;5096481;28;20034;-63
2023/05/08 16:20:44;;;;;;;29.40;22.30;;;23.60;95.00;;;;;;5128248;28;20047;-64
2023/05/08 16:23:10;;;;;;;29.67;21.35;;;23.40;95.70;;;;;;5128580;28;20048;-64
2023/05/08 16:25:36;;;;;;;35.85;25.65;;;23.40;96.30;;;;;;5127556;28;20047;-65
2023/05/08 16:28:01;;;;;;;31.35;23.13;;;23.40;96.80;;;;;;5127922;27;20023;-66
2023/05/08 16:30:27;;;;;;;30.45;23.17;;;23.40;97.20;;;;;;5128866;28;20636;-66
2023/05/08 16:32:52;;;;;;;29.17;21.70;;;23.40;97.60;;;;;;5109734;28;20086;-65
2023/05/08 16:35:18;;;;;;;28.60;22.27;;;23.40;97.90;;;;;;5108492;28;20020;-68
2023/05/08 16:37:44;;;;;;;30.60;22.85;;;23.40;98.20;;;;;;5098720;28;20039;-66
2023/05/08 16:40:10;;;;;;;34.75;23.05;;;23.40;98.60;;;;;;5094020;28;20425;-66
2023/05/08 16:42:36;;;;;;;31.70;22.88;;;23.30;98.90;;;;;;5094197;28;20024;-68
2023/05/08 16:45:05;;;;;;;28.60;20.65;;;23.20;99.20;;;;;;5093657;28;20066;-65
2023/05/08 16:47:32;;;;;;;27.65;21.25;;;23.20;99.80;;;;;;5093350;28;20028;-66
2023/05/08 16:49:57;;;;;;;32.67;22.60;;;23.20;99.90;;;;;;5093349;28;20069;-69
2023/05/08 16:52:23;;;;;;;29.92;22.70;;;23.20;99.90;;;;;;5094169;28;20036;-69
2023/05/08 16:54:49;;;;;;;34.72;26.23;;;23.20;99.90;;;;;;5093541;28;20048;-65
2023/05/08 16:57:14;;;;;;;36.25;25.95;;;23.20;99.90;;;;;;5094297;28;20028;-67
2023/05/08 16:59:40;;;;;;;35.03;25.27;;;23.20;99.90;;;;;;5093828;28;20027;-69
2023/05/08 17:02:06;;;;;;;35.83;25.65;;;23.20;99.90;;;;;;5093449;28;20430;-66
2023/05/08 17:04:32;;;;;;;30.02;23.15;;;23.20;99.90;;;;;;5093267;28;20420;-66
2023/05/08 17:06:58;;;;;;;36.25;25.83;;;23.10;99.90;;;;;;5073187;28;20158;-66
2023/05/08 17:09:26;;;;;;;30.35;23.77;;;23.00;99.90;;;;;;5080170;28;20028;-67
2023/05/08 17:11:52;;;;;;;31.50;22.50;;;22.90;99.90;;;;;;5093695;28;20028;-65
2023/05/08 17:14:17;;;;;;;31.63;23.10;;;22.90;99.90;;;;;;5094973;28;20384;-68
2023/05/08 17:16:43;;;;;;;31.27;23.35;;;22.80;99.90;;;;;;5107332;28;20036;-66
2023/05/08 17:19:10;;;;;;;33.08;23.27;;;22.70;99.90;;;;;;5111692;28;20031;-65
2023/05/08 17:21:35;;;;;;;29.13;22.20;;;22.50;99.90;;;;;;5114621;28;20035;-66
2023/05/08 17:24:02;;;;;;;32.85;22.52;;;22.40;99.90;;;;;;5113210;28;20016;-67
2023/05/08 17:26:31;;;;;;;26.35;20.75;;;22.30;99.90;;;;;;5113264;28;20841;-67
2023/05/08 17:28:57;;;;;;;28.15;21.73;;;22.30;99.90;;;;;;5113897;28;20032;-67
2023/05/08 17:31:22;;;;;;;32.13;21.92;;;22.20;99.90;;;;;;5111685;28;20042;-65
2023/05/08 17:33:48;;;;;;;32.30;23.23;;;22.20;99.90;;;;;;5100631;28;20028;-65
2023/05/08 17:36:13;;;;;;;44.83;33.55;;;22.20;99.90;;;;;;5093088;28;20032;-64
2023/05/08 17:38:44;;;;;;;60.90;44.10;;;22.20;99.90;;;;;;5093126;28;20024;-66
2023/05/08 17:41:11;;;;;;;25.13;18.67;;;22.10;99.90;;;;;;5092419;28;20063;-65
2023/05/08 17:43:36;;;;;;;20.45;15.15;;;21.90;99.90;;;;;;5093429;28;20047;-65
2023/05/08 17:46:02;;;;;;;22.05;15.52;;;21.60;99.90;;;;;;5097587;28;20071;-64
2023/05/08 17:48:27;;;;;;;21.88;16.35;;;21.30;99.90;;;;;;5091728;28;20070;-65
2023/05/08 17:50:53;;;;;;;22.48;15.52;;;21.00;99.90;;;;;;5093648;28;20490;-65
2023/05/08 17:53:19;;;;;;;20.23;15.10;;;20.70;99.90;;;;;;5092793;28;20086;-65
2023/05/08 17:55:44;;;;;;;22.55;15.27;;;20.40;99.90;;;;;;5092688;28;20020;-65
2023/05/08 17:58:10;;;;;;;16.48;13.27;;;20.30;99.90;;;;;;5092546;28;20016;-65
2023/05/08 18:00:36;;;;;;;18.45;13.85;;;20.10;99.90;;;;;;5092861;28;20047;-64
2023/05/08 18:03:02;;;;;;;16.30;12.40;;;19.90;99.90;;;;;;5091983;28;20017;-66
2023/05/08 18:05:29;;;;;;;18.42;13.70;;;19.90;99.90;;;;;;5104631;28;20077;-65
2023/05/08 18:07:55;;;;;;;16.27;13.38;;;19.80;99.90;;;;;;5112877;28;20024;-65
2023/05/08 18:10:22;;;;;;;16.08;13.20;;;19.80;99.90;;;;;;5112681;28;20031;-64
2023/05/08 18:12:48;;;;;;;18.10;13.77;;;19.80;99.90;;;;;;5113416;28;20029;-64
2023/05/08 18:15:13;;;;;;;20.05;15.15;;;19.70;99.90;;;;;;5113012;28;20028;-64
2023/05/08 18:17:39;;;;;;;18.35;15.27;;;19.70;99.90;;;;;;5095104;28;20027;-64
2023/05/08 18:20:06;;;;;;;19.63;15.07;;;19.60;99.90;;;;;;5091302;28;20024;-64
2023/05/08 18:22:35;;;;;;;19.40;15.05;;;19.60;99.90;;;;;;5092215;28;20018;-65
2023/05/08 18:25:01;;;;;;;21.63;15.65;;;19.60;99.90;;;;;;5091482;28;20417;-64
2023/05/08 18:27:27;;;;;;;18.33;14.82;;;19.60;99.90;;;;;;5091656;28;20039;-64
2023/05/08 18:29:53;;;;;;;19.98;16.02;;;19.50;99.90;;;;;;5091847;28;20075;-64
2023/05/08 18:32:19;;;;;;;20.23;16.08;;;19.50;99.90;;;;;;5092692;28;20106;-64
2023/05/08 18:34:45;;;;;;;18.85;15.43;;;19.40;99.90;;;;;;5092043;28;20016;-63
2023/05/08 18:37:11;;;;;;;19.95;16.10;;;19.20;99.90;;;;;;5104972;28;20020;-64
2023/05/08 18:39:36;;;;;;;23.98;15.55;;;19.00;99.90;;;;;;5112694;28;20015;-64
2023/05/08 18:42:02;;;;;;;20.60;15.73;;;18.80;99.90;;;;;;5112057;28;20409;-65
2023/05/08 18:44:28;;;;;;;20.98;15.98;;;18.70;99.90;;;;;;5112067;28;20065;-66
